createdAt,value
2022-09-06T00:01:24.562Z,9.48
2022-09-06T00:04:27.240Z,9.10
2022-09-06T00:07:30.490Z,9.10
2022-09-06T00:10:34.017Z,8.73
2022-09-06T00:13:37.424Z,8.90
2022-09-06T00:16:40.797Z,8.30
2022-09-06T00:19:43.361Z,9.75
2022-09-06T00:22:45.880Z,8.45
2022-09-06T00:25:48.619Z,8.60
2022-09-06T00:28:51.211Z,9.10
2022-09-06T00:31:53.776Z,9.38
2022-09-06T00:34:56.345Z,8.50
2022-09-06T00:38:00.728Z,10.05
2022-09-06T00:41:03.887Z,8.13
2022-09-06T00:44:06.800Z,10.23
2022-09-06T00:47:09.629Z,9.27
2022-09-06T00:50:15.713Z,8.10
2022-09-06T00:53:19.394Z,7.30
2022-09-06T00:56:22.100Z,9.43
2022-09-06T00:59:27.207Z,8.55
2022-09-06T01:02:29.932Z,8.07
2022-09-06T01:05:54.725Z,8.60
2022-09-06T01:09:06.950Z,8.13
2022-09-06T01:12:23.380Z,8.80
2022-09-06T01:15:53.816Z,10.02
2022-09-06T01:19:17.574Z,8.48
2022-09-06T01:22:41.750Z,8.30
2022-09-06T01:26:05.262Z,8.70
2022-09-06T01:29:34.545Z,7.27
2022-09-06T01:32:51.269Z,9.07
2022-09-06T01:36:05.444Z,9.02
2022-09-06T01:39:07.953Z,7.43
2022-09-06T01:42:14.586Z,9.20
2022-09-06T01:45:44.309Z,6.60
2022-09-06T01:49:24.002Z,7.68
2022-09-06T01:52:39.503Z,8.20
2022-09-06T01:56:16.735Z,9.02
2022-09-06T01:59:46.235Z,7.70
2022-09-06T02:02:54.725Z,7.97
2022-09-06T02:06:04.584Z,9.48
2022-09-06T02:09:11.372Z,8.10
2022-09-06T02:12:17.053Z,8.18
2022-09-06T02:15:24.796Z,7.90
2022-09-06T02:18:33.511Z,8.67
2022-09-06T02:21:40.246Z,10.35
2022-09-06T02:24:46.921Z,8.02
2022-09-06T02:27:49.870Z,7.93
2022-09-06T02:31:09.161Z,7.30
2022-09-06T02:34:15.779Z,7.83
2022-09-06T02:37:18.838Z,7.22
2022-09-06T02:40:21.716Z,8.60
2022-09-06T02:43:24.630Z,8.40
2022-09-06T02:46:27.310Z,8.25
2022-09-06T02:49:31.128Z,8.37
2022-09-06T02:52:33.915Z,7.82
2022-09-06T02:55:37.193Z,8.20
2022-09-06T02:58:40.274Z,7.82
2022-09-06T03:01:42.962Z,7.47
2022-09-06T03:04:45.873Z,7.53
2022-09-06T03:07:48.788Z,7.72
2022-09-06T03:10:53.249Z,9.30
2022-09-06T03:13:56.046Z,8.00
2022-09-06T03:16:58.730Z,7.65
2022-09-06T03:20:01.419Z,8.23
2022-09-06T03:23:04.116Z,7.65
2022-09-06T03:26:07.647Z,7.53
2022-09-06T03:29:10.324Z,7.78
2022-09-06T03:32:12.928Z,6.88
2022-09-06T03:35:15.666Z,8.30
2022-09-06T03:38:18.761Z,7.55
2022-09-06T03:41:21.360Z,10.48
2022-09-06T03:44:24.586Z,6.68
2022-09-06T03:47:27.144Z,8.00
2022-09-06T03:50:30.888Z,8.90
2022-09-06T03:53:33.567Z,7.30
2022-09-06T03:56:37.623Z,6.78
2022-09-06T03:59:40.342Z,8.50
2022-09-06T04:02:42.989Z,7.78
2022-09-06T04:05:46.655Z,7.27
2022-09-06T04:08:49.478Z,7.65
2022-09-06T04:11:52.222Z,6.70
2022-09-06T04:14:54.714Z,8.85
2022-09-06T04:17:58.513Z,6.93
2022-09-06T04:21:01.365Z,7.33
2022-09-06T04:24:03.963Z,7.15
2022-09-06T04:27:06.517Z,8.75
2022-09-06T04:30:09.584Z,8.48
2022-09-06T04:33:12.470Z,7.10
2022-09-06T04:36:15.029Z,8.40
2022-09-06T04:39:17.581Z,8.48
2022-09-06T04:42:20.238Z,8.10
2022-09-06T04:45:22.820Z,7.88
2022-09-06T04:48:27.112Z,7.25
2022-09-06T04:51:29.829Z,7.97
2022-09-06T04:54:32.818Z,7.45
2022-09-06T04:57:35.397Z,7.43
2022-09-06T05:00:39.015Z,8.43
2022-09-06T05:03:41.982Z,6.95
2022-09-06T05:06:45.101Z,7.33
2022-09-06T05:09:47.977Z,7.95
2022-09-06T05:12:52.542Z,7.10
2022-09-06T05:15:56.390Z,7.30
2022-09-06T05:18:58.985Z,8.13
2022-09-06T05:22:01.483Z,8.20
2022-09-06T05:25:04.127Z,7.78
2022-09-06T05:28:06.921Z,7.15
2022-09-06T05:31:22.924Z,6.75
2022-09-06T05:34:25.698Z,8.98
2022-09-06T05:37:28.297Z,6.87
2022-09-06T05:40:31.035Z,7.25
2022-09-06T05:43:33.603Z,9.95
2022-09-06T05:46:48.315Z,7.28
2022-09-06T05:49:50.970Z,6.10
2022-09-06T05:52:54.445Z,6.57
2022-09-06T05:55:56.973Z,6.55
2022-09-06T05:58:59.718Z,8.48
2022-09-06T06:02:06.618Z,6.03
2022-09-06T06:05:09.915Z,6.90
2022-09-06T06:08:14.241Z,7.47
2022-09-06T06:11:17.416Z,6.00
2022-09-06T06:14:20.434Z,6.63
2022-09-06T06:17:23.668Z,7.35
2022-09-06T06:20:26.437Z,5.82
2022-09-06T06:23:29.653Z,8.23
2022-09-06T06:26:34.682Z,6.45
2022-09-06T06:29:37.313Z,8.05
2022-09-06T06:32:40.566Z,5.80
2022-09-06T06:36:05.727Z,11.50
2022-09-06T06:39:09.406Z,8.77
2022-09-06T06:42:12.255Z,5.78
2022-09-06T06:45:25.094Z,6.88
2022-09-06T06:48:28.119Z,9.50
2022-09-06T06:51:33.407Z,8.02
2022-09-06T06:54:37.515Z,10.27
2022-09-06T06:57:40.769Z,8.27
2022-09-06T07:00:45.728Z,11.45
2022-09-06T07:03:49.887Z,6.75
2022-09-06T07:10:35.783Z,5.90
2022-09-06T07:13:39.746Z,5.72
2022-09-06T07:16:43.340Z,7.13
2022-09-06T07:26:36.362Z,6.60
2022-09-06T07:29:41.305Z,6.32
2022-09-06T07:32:45.239Z,6.38
2022-09-06T07:36:02.554Z,6.57
2022-09-06T07:39:05.266Z,5.80
2022-09-06T07:42:08.935Z,6.40
2022-09-06T07:45:12.113Z,6.68
2022-09-06T07:48:16.319Z,10.85
2022-09-06T07:51:21.361Z,7.80
2022-09-06T07:54:32.044Z,9.35
2022-09-06T07:57:36.339Z,7.70
2022-09-06T08:00:42.044Z,6.53
2022-09-06T08:03:45.895Z,12.18
2022-09-06T08:10:18.451Z,7.78
2022-09-06T08:13:48.545Z,6.53
2022-09-06T08:16:51.078Z,6.38
2022-09-06T08:19:53.648Z,7.00
2022-09-06T08:22:56.594Z,8.07
2022-09-06T08:25:59.942Z,5.55
2022-09-06T08:29:06.080Z,6.17
2022-09-06T08:32:08.892Z,6.38
2022-09-06T08:35:11.585Z,5.88
2022-09-06T08:38:14.184Z,5.43
2022-09-06T08:41:16.767Z,7.55
2022-09-06T08:45:00.772Z,8.73
2022-09-06T08:48:03.463Z,6.40
2022-09-06T08:51:33.487Z,6.88
2022-09-06T08:55:06.176Z,5.20
2022-09-06T08:58:30.792Z,6.72
2022-09-06T09:05:25.716Z,9.60
2022-09-06T09:08:28.440Z,7.25
2022-09-06T09:11:33.662Z,6.93
2022-09-06T09:14:39.424Z,5.93
2022-09-06T09:17:45.706Z,7.20
2022-09-06T09:20:49.003Z,7.40
2022-09-06T09:23:55.292Z,6.47
2022-09-06T09:27:08.851Z,7.40
2022-09-06T09:33:39.152Z,7.27
2022-09-06T09:40:04.891Z,8.23
2022-09-06T09:43:13.147Z,8.75
2022-09-06T09:46:22.260Z,6.75
2022-09-06T09:49:25.870Z,9.27
2022-09-06T09:52:31.824Z,6.60
2022-09-06T09:55:34.601Z,8.07
2022-09-06T09:58:37.459Z,10.30
2022-09-06T10:01:40.229Z,5.82
2022-09-06T10:04:49.781Z,8.57
2022-09-06T10:07:55.355Z,10.05
2022-09-06T10:10:58.275Z,10.45
2022-09-06T10:14:12.228Z,7.07
2022-09-06T10:17:36.541Z,8.32
2022-09-06T10:20:50.704Z,6.60
2022-09-06T10:27:33.347Z,9.77
2022-09-06T10:31:00.985Z,9.05
2022-09-06T10:34:21.722Z,8.13
2022-09-06T10:37:39.631Z,10.10
2022-09-06T10:41:16.611Z,8.90
2022-09-06T10:44:43.507Z,10.50
2022-09-06T10:48:03.930Z,8.88
2022-09-06T10:51:23.739Z,6.70
2022-09-06T10:54:26.932Z,8.50
2022-09-06T11:01:38.054Z,12.05
2022-09-06T11:11:45.300Z,7.83
2022-09-06T11:14:48.896Z,8.15
2022-09-06T11:18:11.185Z,12.50
2022-09-06T11:21:35.137Z,9.05
2022-09-06T11:25:14.644Z,9.80
2022-09-06T11:28:41.680Z,7.87
2022-09-06T11:35:31.986Z,5.50
2022-09-06T11:38:34.764Z,6.57
2022-09-06T11:41:40.829Z,7.75
2022-09-06T11:44:49.829Z,7.47
2022-09-06T11:47:53.153Z,9.90
2022-09-06T11:50:58.553Z,6.97
2022-09-06T11:54:25.280Z,9.43
2022-09-06T11:57:28.533Z,6.55
2022-09-06T12:00:33.705Z,7.50
2022-09-06T12:07:12.221Z,9.43
2022-09-06T12:10:30.281Z,5.50
2022-09-06T12:13:55.210Z,7.90
2022-09-06T12:16:59.733Z,8.37
2022-09-06T12:20:07.384Z,7.07
2022-09-06T12:23:35.580Z,5.78
2022-09-06T12:26:55.708Z,5.88
2022-09-06T12:30:05.328Z,4.97
2022-09-06T12:33:14.249Z,6.17
2022-09-06T12:36:22.772Z,7.13
2022-09-06T12:39:28.191Z,5.28
2022-09-06T12:42:32.232Z,5.53
2022-09-06T12:45:34.968Z,4.93
2022-09-06T12:48:41.447Z,5.03
2022-09-06T12:51:44.556Z,5.57
2022-09-06T12:54:50.431Z,4.70
2022-09-06T12:58:02.075Z,5.40
2022-09-06T13:01:34.556Z,6.22
2022-09-06T13:04:49.033Z,5.37
2022-09-06T13:07:55.540Z,4.32
2022-09-06T13:10:58.373Z,5.65
2022-09-06T13:14:04.050Z,6.75
2022-09-06T13:17:08.490Z,4.60
2022-09-06T13:20:30.800Z,4.47
2022-09-06T13:23:53.023Z,4.53
2022-09-06T13:26:56.976Z,5.70
2022-09-06T13:30:03.013Z,5.57
2022-09-06T13:33:07.787Z,5.53
2022-09-06T13:36:13.366Z,5.63
2022-09-06T13:39:39.669Z,5.47
2022-09-06T13:42:44.652Z,4.18
2022-09-06T13:45:47.997Z,5.15
2022-09-06T13:48:54.538Z,7.80
2022-09-06T13:52:03.082Z,5.67
2022-09-06T13:55:07.270Z,6.38
2022-09-06T13:58:10.147Z,5.70
2022-09-06T14:01:14.381Z,6.15
2022-09-06T14:04:21.613Z,6.45
2022-09-06T14:07:24.252Z,6.27
2022-09-06T14:10:26.979Z,4.82
2022-09-06T14:13:30.323Z,5.88
2022-09-06T14:16:34.500Z,7.25
2022-09-06T14:19:37.556Z,5.72
2022-09-06T14:22:40.088Z,4.93
2022-09-06T14:25:42.637Z,4.13
2022-09-06T14:28:45.649Z,6.32
2022-09-06T14:31:49.128Z,5.07
2022-09-06T14:34:51.636Z,7.95
2022-09-06T14:37:54.172Z,5.03
2022-09-06T14:41:04.228Z,7.78
2022-09-06T14:44:06.754Z,5.25
2022-09-06T14:47:09.589Z,5.63
2022-09-06T14:50:12.744Z,6.68
2022-09-06T14:53:38.777Z,5.07
2022-09-06T14:56:40.484Z,4.10
2022-09-06T14:59:43.072Z,8.23
2022-09-06T15:02:45.704Z,6.20
2022-09-06T15:05:48.808Z,7.55
2022-09-06T15:08:54.637Z,6.80
2022-09-06T15:12:01.579Z,10.82
2022-09-06T15:15:05.714Z,11.32
2022-09-06T15:18:08.296Z,8.77
2022-09-06T15:21:16.231Z,10.57
2022-09-06T15:24:19.578Z,14.53
2022-09-06T15:27:22.668Z,15.10
2022-09-06T15:30:25.576Z,18.65
2022-09-06T15:33:36.431Z,18.90
2022-09-06T15:36:39.019Z,22.55
2022-09-06T15:39:41.595Z,16.30
2022-09-06T15:42:44.521Z,13.85
2022-09-06T15:45:49.715Z,20.58
2022-09-06T15:48:53.862Z,12.27
2022-09-06T15:51:58.336Z,12.85
2022-09-06T15:55:19.670Z,12.37
2022-09-06T15:58:28.607Z,14.00
2022-09-06T16:01:34.113Z,17.95
2022-09-06T16:04:36.790Z,12.57
2022-09-06T16:07:43.149Z,13.05
2022-09-06T16:10:46.110Z,13.97
2022-09-06T16:13:49.073Z,12.40
2022-09-06T16:16:53.915Z,11.52
2022-09-06T16:19:57.165Z,14.35
2022-09-06T16:22:59.808Z,12.77
2022-09-06T16:26:04.278Z,13.87
2022-09-06T16:29:09.319Z,13.48
2022-09-06T16:32:12.361Z,11.45
2022-09-06T16:35:15.207Z,12.60
2022-09-06T16:38:18.476Z,16.80
2022-09-06T16:41:28.848Z,12.17
2022-09-06T16:44:31.427Z,16.42
2022-09-06T16:47:34.022Z,12.77
2022-09-06T16:50:36.749Z,13.98
2022-09-06T16:53:42.097Z,14.38
2022-09-06T16:56:45.257Z,11.80
2022-09-06T16:59:49.026Z,11.30
2022-09-06T17:02:51.931Z,16.00
2022-09-06T17:05:54.709Z,11.90
2022-09-06T17:08:59.256Z,12.90
2022-09-06T17:12:03.874Z,14.37
2022-09-06T17:15:09.097Z,13.65
2022-09-06T17:18:12.215Z,15.32
2022-09-06T17:21:14.814Z,13.50
2022-09-06T17:24:17.394Z,12.63
2022-09-06T17:27:20.283Z,13.73
2022-09-06T17:30:23.143Z,14.52
2022-09-06T17:33:25.943Z,12.32
2022-09-06T17:36:31.124Z,12.52
2022-09-06T17:39:33.795Z,11.80
2022-09-06T17:42:37.425Z,10.40
2022-09-06T17:45:42.992Z,12.90
2022-09-06T17:48:46.230Z,11.52
2022-09-06T17:51:49.685Z,13.52
2022-09-06T17:54:52.287Z,10.10
2022-09-06T17:57:58.013Z,14.57
2022-09-06T18:01:09.217Z,11.55
2022-09-06T18:04:16.371Z,11.57
2022-09-06T18:07:19.695Z,11.30
2022-09-06T18:10:24.285Z,13.35
2022-09-06T18:13:27.126Z,12.77
2022-09-06T18:16:31.362Z,11.38
2022-09-06T18:19:34.310Z,11.52
2022-09-06T18:22:39.091Z,11.10
2022-09-06T18:25:41.959Z,10.23
2022-09-06T18:28:45.327Z,13.07
2022-09-06T18:31:48.374Z,8.73
2022-09-06T18:34:51.374Z,15.00
2022-09-06T18:37:54.216Z,8.98
2022-09-06T18:41:01.758Z,9.93
2022-09-06T18:44:06.081Z,10.00
2022-09-06T18:47:10.100Z,9.38
2022-09-06T18:50:12.691Z,12.52
2022-09-06T18:53:18.598Z,11.43
2022-09-06T18:56:21.793Z,10.18
2022-09-06T18:59:25.355Z,10.80
2022-09-06T19:02:29.120Z,10.48
2022-09-06T19:05:36.394Z,12.02
2022-09-06T19:08:40.466Z,9.95
2022-09-06T19:11:46.134Z,9.05
2022-09-06T19:14:49.207Z,9.63
2022-09-06T19:17:52.648Z,8.75
2022-09-06T19:21:10.635Z,11.07
2022-09-06T19:24:16.625Z,9.95
2022-09-06T19:27:20.227Z,11.02
2022-09-06T19:30:23.395Z,9.27
2022-09-06T19:33:27.619Z,9.65
2022-09-06T19:36:32.311Z,8.18
2022-09-06T19:39:37.271Z,8.68
2022-09-06T19:42:40.470Z,8.77
2022-09-06T19:45:43.484Z,8.53
2022-09-06T19:48:48.339Z,9.40
2022-09-06T19:51:51.378Z,9.85
2022-09-06T19:54:54.449Z,12.40
2022-09-06T19:57:58.170Z,9.65
2022-09-06T20:01:01.744Z,9.43
2022-09-06T20:04:08.173Z,11.23
2022-09-06T20:07:11.160Z,10.75
2022-09-06T20:10:14.004Z,8.25
2022-09-06T20:13:16.925Z,10.65
2022-09-06T20:16:20.966Z,9.07
2022-09-06T20:19:24.533Z,9.98
2022-09-06T20:22:27.569Z,10.57
2022-09-06T20:25:31.035Z,7.65
2022-09-06T20:28:35.228Z,8.90
2022-09-06T20:31:39.061Z,8.77
2022-09-06T20:34:43.221Z,9.07
2022-09-06T20:37:46.056Z,8.77
2022-09-06T20:40:57.940Z,9.68
2022-09-06T20:44:01.231Z,9.48
2022-09-06T20:47:05.693Z,8.63
2022-09-06T20:50:09.097Z,8.50
2022-09-06T20:53:11.876Z,10.32
2022-09-06T20:56:20.386Z,8.85
2022-09-06T20:59:23.027Z,7.45
2022-09-06T21:02:25.732Z,7.47
2022-09-06T21:05:28.318Z,8.93
2022-09-06T21:08:34.524Z,9.20
2022-09-06T21:11:38.610Z,9.55
2022-09-06T21:14:41.158Z,8.57
2022-09-06T21:17:44.735Z,10.67
2022-09-06T21:21:00.995Z,8.40
2022-09-06T21:24:05.772Z,7.90
2022-09-06T21:27:12.075Z,8.70
2022-09-06T21:30:14.914Z,8.02
2022-09-06T21:33:17.687Z,8.80
2022-09-06T21:36:23.154Z,7.60
2022-09-06T21:39:26.139Z,8.75
2022-09-06T21:42:29.227Z,7.45
2022-09-06T21:45:31.759Z,7.70
2022-09-06T21:48:46.032Z,7.40
2022-09-06T21:51:48.666Z,7.70
2022-09-06T21:54:51.203Z,7.35
2022-09-06T21:57:53.795Z,8.07
2022-09-06T22:01:01.532Z,7.45
2022-09-06T22:04:05.146Z,7.23
2022-09-06T22:07:07.680Z,7.97
2022-09-06T22:10:10.243Z,7.55
2022-09-06T22:13:12.838Z,7.53
2022-09-06T22:16:19.201Z,7.13
2022-09-06T22:19:24.146Z,7.97
2022-09-06T22:22:29.030Z,6.75
2022-09-06T22:25:32.100Z,10.27
2022-09-06T22:28:35.847Z,7.80
2022-09-06T22:31:39.643Z,8.32
2022-09-06T22:34:43.202Z,8.53
2022-09-06T22:37:46.046Z,7.20
2022-09-06T22:40:48.881Z,7.25
2022-09-06T22:43:51.546Z,7.88
2022-09-06T22:46:56.967Z,7.97
2022-09-06T22:49:59.577Z,8.00
2022-09-06T22:53:02.214Z,8.63
2022-09-06T22:56:04.879Z,7.95
2022-09-06T22:59:07.962Z,7.10
2022-09-06T23:02:11.000Z,7.78
2022-09-06T23:05:13.899Z,9.37
2022-09-06T23:08:16.528Z,7.85
2022-09-06T23:11:19.391Z,6.90
2022-09-06T23:14:21.957Z,6.82
2022-09-06T23:17:24.556Z,8.93
2022-09-06T23:20:27.935Z,7.70
2022-09-06T23:23:31.786Z,8.68
2022-09-06T23:26:34.407Z,6.90
2022-09-06T23:29:36.931Z,7.53
2022-09-06T23:32:39.721Z,7.20
2022-09-06T23:35:42.660Z,6.80
2022-09-06T23:38:46.533Z,8.65
2022-09-06T23:41:49.209Z,6.63
2022-09-06T23:44:57.264Z,6.80
2022-09-06T23:47:59.974Z,7.80
2022-09-06T23:51:03.117Z,8.93
2022-09-06T23:54:06.214Z,6.82
2022-09-06T23:57:09.889Z,7.70
